createdAt,value
2023-05-14T00:08:58.473Z,75.92
2023-05-14T00:23:50.195Z,77.61
2023-05-14T00:38:42.707Z,77.13
2023-05-14T00:53:35.247Z,76.53
2023-05-14T01:08:57.704Z,76.23
2023-05-14T01:23:55.524Z,76.46
2023-05-14T01:38:48.083Z,77.83
2023-05-14T01:53:38.769Z,79.95
2023-05-14T02:08:31.315Z,80.65
2023-05-14T02:23:34.072Z,81.70
2023-05-14T02:38:16.045Z,83.43
2023-05-14T02:53:08.069Z,84.94
2023-05-14T03:08:00.677Z,84.73
2023-05-14T03:22:53.940Z,83.76
2023-05-14T03:37:46.246Z,83.35
2023-05-14T03:52:37.216Z,83.49
2023-05-14T04:07:28.464Z,84.11
2023-05-14T04:22:19.759Z,82.82
2023-05-14T04:37:11.484Z,82.70
2023-05-14T04:52:02.796Z,80.15
2023-05-14T05:06:54.237Z,79.75
2023-05-14T05:21:45.955Z,79.34
2023-05-14T05:36:37.254Z,79.06
2023-05-14T05:51:30.226Z,78.55
2023-05-14T06:06:22.729Z,77.60
2023-05-14T06:21:15.676Z,76.11
2023-05-14T06:36:07.807Z,74.18
2023-05-14T06:51:00.746Z,72.95
2023-05-14T07:05:54.151Z,70.33
2023-05-14T07:35:40.004Z,66.82
2023-05-14T07:50:32.627Z,65.57
2023-05-14T08:05:25.098Z,64.85
2023-05-14T08:20:18.323Z,64.07
2023-05-14T08:35:12.404Z,62.18
2023-05-14T08:50:05.943Z,60.93
2023-05-14T09:19:51.353Z,59.29
2023-05-14T09:34:47.045Z,57.79
2023-05-14T11:34:50.617Z,51.49
2023-05-14T12:49:12.669Z,49.59
2023-05-14T13:04:05.285Z,48.12
2023-05-14T13:18:58.961Z,46.83
2023-05-14T13:33:55.915Z,47.66
2023-05-14T13:48:50.017Z,48.22
2023-05-14T14:03:44.173Z,45.78
2023-05-14T14:18:42.817Z,42.66
2023-05-14T14:33:36.559Z,41.36
2023-05-14T14:48:41.763Z,42.08
2023-05-14T15:03:33.654Z,42.48
2023-05-14T15:18:18.284Z,44.46
2023-05-14T15:33:18.589Z,40.63
2023-05-14T15:48:20.144Z,38.09
2023-05-14T16:03:16.427Z,38.85
2023-05-14T16:18:02.804Z,51.98
2023-05-14T16:32:50.420Z,56.08
2023-05-14T16:47:40.227Z,55.11
2023-05-14T17:02:31.005Z,54.63
2023-05-14T17:17:23.020Z,53.36
2023-05-14T17:32:14.817Z,53.03
2023-05-14T17:47:07.310Z,53.12
2023-05-14T18:02:00.237Z,54.93
2023-05-14T18:16:51.394Z,53.89
2023-05-14T18:31:42.466Z,52.82
2023-05-14T18:46:33.806Z,53.28
2023-05-14T19:01:25.979Z,56.58
2023-05-14T19:16:17.220Z,59.61
2023-05-14T19:31:09.019Z,62.46
2023-05-14T19:46:01.379Z,66.43
2023-05-14T20:00:52.581Z,67.45
2023-05-14T20:15:46.516Z,68.70
2023-05-14T20:30:38.202Z,71.17
2023-05-14T20:45:31.411Z,72.03
2023-05-14T21:00:24.696Z,73.07
2023-05-14T21:15:18.076Z,75.05
2023-05-14T21:30:10.390Z,75.35
2023-05-14T21:45:02.519Z,76.83
2023-05-14T21:59:54.269Z,77.47
2023-05-14T22:29:39.734Z,77.99
2023-05-14T23:14:27.595Z,78.62
2023-05-14T23:29:19.533Z,80.52
2023-05-14T23:44:11.036Z,81.02
2023-05-14T23:59:03.767Z,81.37
